createdAt,value
2023-03-28T00:01:12.448Z,3.63
2023-03-28T00:03:40.933Z,3.35
2023-03-28T00:06:18.821Z,3.63
2023-03-28T00:08:47.336Z,3.40
2023-03-28T00:11:20.508Z,4.00
2023-03-28T00:14:00.716Z,5.20
2023-03-28T00:16:33.055Z,4.03
2023-03-28T00:19:15.436Z,4.75
2023-03-28T00:21:51.254Z,3.88
2023-03-28T00:24:21.489Z,3.75
2023-03-28T00:26:49.714Z,3.58
2023-03-28T00:29:20.782Z,3.83
2023-03-28T00:31:50.762Z,3.72
2023-03-28T00:34:20.521Z,3.30
2023-03-28T00:36:47.361Z,3.90
2023-03-28T00:39:14.428Z,3.42
2023-03-28T00:41:48.695Z,3.67
2023-03-28T00:47:47.009Z,3.88
2023-03-28T00:50:43.348Z,3.58
2023-03-28T00:53:28.158Z,4.07
2023-03-28T00:56:18.871Z,3.58
2023-03-28T00:58:50.860Z,3.63
2023-03-28T01:01:20.839Z,3.35
2023-03-28T01:04:02.198Z,3.35
2023-03-28T01:06:47.860Z,3.30
2023-03-28T01:09:19.302Z,3.72
2023-03-28T01:11:47.070Z,3.47
2023-03-28T01:14:21.621Z,3.70
2023-03-28T01:16:52.714Z,3.72
2023-03-28T01:19:43.131Z,3.30
2023-03-28T01:23:02.652Z,3.97
2023-03-28T01:26:12.781Z,3.80
2023-03-28T01:29:21.117Z,4.47
2023-03-28T01:32:15.865Z,4.10
2023-03-28T01:35:45.877Z,3.58
2023-03-28T01:38:58.017Z,3.72
2023-03-28T01:41:36.640Z,4.10
2023-03-28T01:44:13.136Z,3.92
2023-03-28T01:47:34.420Z,4.22
2023-03-28T01:50:29.010Z,4.30
2023-03-28T01:54:04.030Z,3.83
2023-03-28T01:56:57.693Z,4.25
2023-03-28T01:59:34.521Z,4.07
2023-03-28T02:02:25.964Z,3.38
2023-03-28T02:04:58.726Z,3.65
2023-03-28T02:07:27.192Z,3.65
2023-03-28T02:09:57.910Z,3.80
2023-03-28T02:12:36.377Z,3.30
2023-03-28T02:15:13.154Z,3.83
2023-03-28T02:17:52.769Z,3.92
2023-03-28T02:20:26.400Z,4.03
2023-03-28T02:23:34.194Z,4.68
2023-03-28T02:26:01.053Z,3.58
2023-03-28T02:28:32.317Z,3.45
2023-03-28T02:31:01.656Z,4.20
2023-03-28T02:33:50.310Z,3.78
2023-03-28T02:36:48.560Z,3.65
2023-03-28T02:39:48.581Z,4.28
2023-03-28T02:43:07.708Z,4.53
2023-03-28T02:46:44.423Z,3.53
2023-03-28T02:50:27.309Z,3.70
2023-03-28T02:53:16.400Z,3.63
2023-03-28T02:56:10.777Z,4.13
2023-03-28T02:58:53.319Z,4.80
2023-03-28T03:01:21.210Z,3.85
2023-03-28T03:03:49.905Z,5.07
2023-03-28T03:06:20.889Z,4.22
2023-03-28T03:08:47.659Z,3.83
2023-03-28T03:11:14.500Z,4.15
2023-03-28T03:13:44.412Z,4.72
2023-03-28T03:16:18.676Z,4.47
2023-03-28T03:18:45.799Z,5.05
2023-03-28T03:21:12.757Z,4.47
2023-03-28T03:23:41.302Z,4.57
2023-03-28T03:26:08.052Z,4.80
2023-03-28T03:28:34.839Z,4.43
2023-03-28T03:31:02.170Z,4.93
2023-03-28T03:33:30.596Z,4.93
2023-03-28T03:35:59.236Z,4.75
2023-03-28T03:38:28.223Z,4.32
2023-03-28T03:40:54.924Z,4.30
2023-03-28T03:43:22.051Z,4.72
2023-03-28T03:45:48.775Z,5.55
2023-03-28T03:48:15.492Z,5.20
2023-03-28T03:50:45.206Z,4.97
2023-03-28T03:53:14.963Z,4.72
2023-03-28T03:55:45.118Z,4.70
2023-03-28T03:58:14.502Z,5.13
2023-03-28T04:00:48.950Z,4.70
2023-03-28T04:03:24.398Z,5.20
2023-03-28T04:05:52.910Z,4.82
2023-03-28T04:08:19.722Z,4.55
2023-03-28T04:10:47.444Z,4.53
2023-03-28T04:13:20.242Z,4.75
2023-03-28T04:15:47.731Z,5.15
2023-03-28T04:18:15.474Z,4.45
2023-03-28T04:20:44.666Z,4.60
2023-03-28T04:23:11.418Z,3.70
2023-03-28T04:25:44.579Z,4.57
2023-03-28T04:28:16.184Z,4.18
2023-03-28T04:30:43.568Z,4.40
2023-03-28T04:33:12.825Z,4.38
2023-03-28T04:35:42.356Z,5.47
2023-03-28T04:38:09.756Z,4.75
2023-03-28T04:40:47.268Z,4.30
2023-03-28T04:43:22.357Z,4.15
2023-03-28T04:45:49.122Z,4.32
2023-03-28T04:48:16.017Z,5.45
2023-03-28T04:50:43.019Z,5.05
2023-03-28T04:53:09.770Z,4.75
2023-03-28T04:55:36.595Z,5.03
2023-03-28T04:58:03.567Z,5.30
2023-03-28T05:00:30.303Z,4.53
2023-03-28T05:03:04.713Z,5.63
2023-03-28T05:05:34.678Z,4.88
2023-03-28T05:08:04.221Z,4.65
2023-03-28T05:10:35.620Z,5.78
2023-03-28T05:13:02.569Z,4.35
2023-03-28T05:15:35.703Z,5.10
2023-03-28T05:18:03.057Z,5.15
2023-03-28T05:20:37.089Z,5.28
2023-03-28T05:23:06.180Z,4.95
2023-03-28T05:25:36.630Z,5.13
2023-03-28T05:28:04.778Z,4.80
2023-03-28T05:30:34.379Z,5.43
2023-03-28T05:33:03.927Z,4.82
2023-03-28T05:35:30.856Z,4.75
2023-03-28T05:38:01.328Z,4.88
2023-03-28T05:40:28.072Z,4.28
2023-03-28T05:42:57.729Z,4.43
2023-03-28T05:45:25.157Z,4.93
2023-03-28T05:47:55.633Z,4.90
2023-03-28T06:23:03.939Z,4.28
2023-03-28T06:25:30.762Z,5.07
2023-03-28T06:27:57.935Z,5.22
2023-03-28T06:30:24.792Z,5.25
2023-03-28T06:32:51.609Z,5.03
2023-03-28T06:35:18.804Z,4.50
2023-03-28T06:37:45.617Z,5.28
2023-03-28T06:40:12.331Z,5.13
2023-03-28T06:42:38.949Z,5.53
2023-03-28T06:45:06.972Z,5.13
2023-03-28T06:47:33.800Z,5.35
2023-03-28T06:50:00.429Z,5.93
2023-03-28T06:52:27.154Z,4.35
2023-03-28T06:54:53.928Z,4.63
2023-03-28T06:57:20.987Z,3.83
2023-03-28T06:59:47.913Z,4.38
2023-03-28T07:02:14.492Z,5.07
2023-03-28T07:04:44.248Z,4.00
2023-03-28T07:07:10.910Z,4.20
2023-03-28T07:09:37.609Z,4.05
2023-03-28T07:12:05.287Z,4.72
2023-03-28T07:14:37.085Z,4.50
2023-03-28T07:17:03.851Z,4.30
2023-03-28T07:19:30.683Z,4.28
2023-03-28T07:21:57.357Z,3.90
2023-03-28T07:24:24.106Z,4.28
2023-03-28T07:26:52.043Z,4.15
2023-03-28T07:29:21.911Z,5.28
2023-03-28T07:31:48.753Z,3.97
2023-03-28T07:34:21.488Z,3.67
2023-03-28T07:36:51.960Z,3.10
2023-03-28T07:39:29.813Z,4.30
2023-03-28T07:41:56.768Z,3.42
2023-03-28T07:44:23.386Z,3.60
2023-03-28T07:46:51.284Z,4.00
2023-03-28T07:49:21.462Z,4.18
2023-03-28T07:51:48.151Z,3.20
2023-03-28T07:54:19.848Z,3.70
2023-03-28T07:56:48.498Z,3.40
2023-03-28T07:59:15.388Z,3.10
2023-03-28T08:01:46.849Z,3.25
2023-03-28T08:04:14.361Z,3.03
2023-03-28T08:06:45.632Z,2.92
2023-03-28T08:09:22.727Z,3.67
2023-03-28T08:11:49.583Z,3.53
2023-03-28T08:14:20.583Z,3.63
2023-03-28T08:16:47.329Z,3.47
2023-03-28T08:19:14.455Z,3.33
2023-03-28T08:21:44.141Z,2.40
2023-03-28T08:24:12.903Z,3.53
2023-03-28T08:26:48.595Z,3.03
2023-03-28T08:29:15.679Z,2.70
2023-03-28T08:31:45.583Z,3.05
2023-03-28T08:34:12.340Z,3.10
2023-03-28T08:36:47.386Z,2.72
2023-03-28T08:39:14.054Z,3.42
2023-03-28T08:42:31.424Z,2.95
2023-03-28T08:45:38.472Z,2.65
2023-03-28T08:48:11.301Z,2.80
2023-03-28T08:50:58.447Z,2.63
2023-03-28T08:53:51.774Z,2.70
2023-03-28T08:56:21.332Z,2.53
2023-03-28T08:59:16.154Z,2.60
2023-03-28T09:01:44.972Z,2.88
2023-03-28T09:04:35.074Z,3.35
2023-03-28T09:07:55.337Z,3.17
2023-03-28T09:11:13.175Z,3.75
2023-03-28T09:14:44.826Z,3.05
2023-03-28T09:17:34.851Z,2.95
2023-03-28T09:20:33.373Z,3.22
2023-03-28T09:23:48.726Z,2.70
2023-03-28T09:26:24.202Z,2.55
2023-03-28T09:29:11.835Z,1.98
2023-03-28T09:31:49.158Z,2.40
2023-03-28T09:34:35.028Z,2.30
2023-03-28T09:37:28.862Z,2.25
2023-03-28T09:40:18.434Z,2.17
2023-03-28T09:43:22.903Z,3.03
2023-03-28T09:46:08.548Z,2.30
2023-03-28T09:48:44.969Z,2.33
2023-03-28T09:51:22.862Z,2.38
2023-03-28T09:53:49.705Z,2.10
2023-03-28T09:56:36.604Z,1.80
2023-03-28T09:59:30.181Z,2.28
2023-03-28T10:02:01.373Z,2.42
2023-03-28T10:04:31.145Z,2.25
2023-03-28T10:07:10.063Z,2.13
2023-03-28T10:09:54.197Z,2.28
2023-03-28T10:12:56.230Z,2.25
2023-03-28T10:15:51.243Z,2.58
2023-03-28T10:20:52.697Z,2.40
2023-03-28T10:23:25.663Z,2.83
2023-03-28T10:25:54.781Z,2.50
2023-03-28T10:28:33.201Z,2.50
2023-03-28T10:31:04.095Z,2.00
2023-03-28T10:33:52.425Z,2.25
2023-03-28T10:36:54.760Z,2.50
2023-03-28T10:39:35.545Z,2.30
2023-03-28T10:42:03.970Z,2.20
2023-03-28T10:44:41.781Z,2.35
2023-03-28T10:47:19.714Z,2.25
2023-03-28T10:49:52.374Z,2.45
2023-03-28T10:52:34.206Z,2.28
2023-03-28T10:55:26.702Z,2.60
2023-03-28T10:58:12.800Z,2.03
2023-03-28T11:01:30.717Z,1.80
2023-03-28T11:04:28.107Z,2.08
2023-03-28T11:10:21.102Z,2.15
2023-03-28T11:13:30.883Z,2.13
2023-03-28T11:16:18.744Z,2.10
2023-03-28T11:19:43.971Z,2.28
2023-03-28T11:22:52.311Z,2.53
2023-03-28T11:25:54.337Z,2.53
2023-03-28T11:29:04.263Z,2.17
2023-03-28T11:32:31.778Z,2.65
2023-03-28T11:35:29.212Z,2.35
2023-03-28T11:38:30.979Z,2.35
2023-03-28T11:41:21.689Z,4.32
2023-03-28T11:44:00.583Z,2.63
2023-03-28T11:46:45.480Z,2.45
2023-03-28T11:49:29.435Z,2.30
2023-03-28T11:52:26.999Z,2.60
2023-03-28T11:55:17.495Z,2.25
2023-03-28T11:57:59.880Z,2.20
2023-03-28T12:01:03.708Z,2.47
2023-03-28T12:04:01.448Z,2.05
2023-03-28T12:07:02.854Z,2.15
2023-03-28T12:09:54.066Z,2.50
2023-03-28T12:13:11.781Z,1.80
2023-03-28T12:15:51.981Z,2.50
2023-03-28T12:18:52.267Z,2.30
2023-03-28T12:21:51.794Z,2.53
2023-03-28T12:24:40.126Z,2.38
2023-03-28T12:27:27.453Z,2.50
2023-03-28T12:30:22.221Z,2.53
2023-03-28T12:33:16.002Z,2.47
2023-03-28T12:36:24.252Z,2.30
2023-03-28T12:39:34.845Z,3.35
2023-03-28T12:42:11.626Z,2.78
2023-03-28T12:45:14.482Z,2.78
2023-03-28T12:47:54.130Z,2.42
2023-03-28T12:50:37.000Z,2.85
2023-03-28T12:53:04.121Z,2.30
2023-03-28T12:55:54.919Z,1.75
2023-03-28T12:58:41.506Z,2.33
2023-03-28T13:01:34.195Z,2.35
2023-03-28T13:04:37.713Z,2.30
2023-03-28T13:07:32.217Z,2.70
2023-03-28T13:10:38.344Z,3.55
2023-03-28T13:13:59.353Z,2.55
2023-03-28T13:16:57.515Z,3.58
2023-03-28T13:19:43.030Z,3.00
2023-03-28T13:22:49.006Z,3.15
2023-03-28T13:25:32.519Z,4.20
2023-03-28T13:28:13.117Z,2.93
2023-03-28T13:30:46.832Z,2.53
2023-03-28T13:33:42.948Z,3.83
2023-03-28T13:36:19.881Z,3.38
2023-03-28T13:39:08.400Z,3.17
2023-03-28T13:41:44.223Z,2.85
2023-03-28T13:44:22.892Z,3.20
2023-03-28T13:46:54.369Z,3.78
2023-03-28T13:49:41.593Z,4.97
2023-03-28T13:52:24.337Z,2.88
2023-03-28T13:54:56.657Z,3.05
2023-03-28T13:57:27.132Z,3.22
2023-03-28T14:00:08.079Z,4.18
2023-03-28T14:02:49.208Z,3.90
2023-03-28T14:05:32.632Z,4.47
2023-03-28T14:08:31.556Z,3.75
2023-03-28T14:11:00.675Z,3.40
2023-03-28T14:13:33.606Z,4.32
2023-03-28T14:16:00.598Z,3.53
2023-03-28T14:18:43.271Z,4.03
2023-03-28T14:21:10.450Z,3.67
2023-03-28T14:24:02.259Z,2.83
2023-03-28T14:26:40.344Z,2.88
2023-03-28T14:29:15.810Z,2.95
2023-03-28T14:31:52.272Z,3.60
2023-03-28T14:34:37.719Z,3.35
2023-03-28T14:37:20.154Z,3.10
2023-03-28T14:39:47.439Z,3.42
2023-03-28T14:42:22.488Z,3.10
2023-03-28T14:44:57.169Z,4.05
2023-03-28T14:47:33.532Z,3.53
2023-03-28T14:50:02.464Z,3.20
2023-03-28T14:52:38.241Z,3.63
2023-03-28T14:55:07.593Z,3.17
2023-03-28T14:57:38.099Z,3.45
2023-03-28T15:00:12.675Z,3.50
2023-03-28T15:02:45.521Z,4.72
2023-03-28T15:05:22.323Z,3.20
2023-03-28T15:08:04.919Z,3.13
2023-03-28T15:10:35.328Z,3.10
2023-03-28T15:13:34.178Z,3.55
2023-03-28T15:16:02.336Z,3.10
2023-03-28T15:18:38.440Z,2.97
2023-03-28T15:21:10.652Z,3.97
2023-03-28T15:23:49.274Z,3.90
2023-03-28T15:26:35.424Z,3.47
2023-03-28T15:29:07.194Z,2.97
2023-03-28T15:31:43.130Z,3.45
2023-03-28T15:34:24.556Z,3.50
2023-03-28T15:37:01.017Z,3.75
2023-03-28T15:39:35.945Z,4.45
2023-03-28T15:42:21.028Z,3.83
2023-03-28T15:45:21.858Z,3.38
2023-03-28T15:47:59.271Z,4.18
2023-03-28T15:50:38.324Z,3.88
2023-03-28T15:53:16.512Z,3.40
2023-03-28T15:55:46.802Z,3.80
2023-03-28T15:58:21.678Z,3.30
2023-03-28T16:00:55.605Z,4.85
2023-03-28T16:03:38.313Z,4.47
2023-03-28T16:06:14.092Z,4.13
2023-03-28T16:08:59.748Z,3.90
2023-03-28T16:11:27.513Z,4.45
2023-03-28T16:13:54.444Z,3.22
2023-03-28T16:16:30.104Z,3.75
2023-03-28T16:18:56.920Z,3.28
2023-03-28T16:21:23.942Z,3.90
2023-03-28T16:23:50.767Z,3.28
2023-03-28T16:26:20.497Z,3.85
2023-03-28T16:28:47.153Z,3.75
2023-03-28T16:31:15.681Z,3.22
2023-03-28T16:33:42.565Z,4.15
2023-03-28T16:36:13.481Z,3.53
2023-03-28T16:38:45.025Z,4.88
2023-03-28T16:41:11.699Z,4.68
2023-03-28T16:43:38.671Z,4.13
2023-03-28T16:46:06.460Z,3.85
2023-03-28T16:48:36.464Z,3.58
2023-03-28T16:51:07.106Z,4.18
2023-03-28T16:53:42.609Z,3.30
2023-03-28T16:56:12.242Z,4.28
2023-03-28T17:04:10.098Z,3.35
2023-03-28T17:17:41.890Z,3.63
2023-03-28T17:50:39.067Z,3.80
2023-03-28T18:25:47.086Z,4.20
2023-03-28T18:47:16.858Z,5.60
2023-03-28T19:33:14.646Z,5.35
2023-03-28T19:35:46.876Z,4.55
2023-03-28T19:38:13.544Z,4.40
2023-03-28T19:40:46.057Z,5.45
2023-03-28T19:43:18.722Z,5.07
2023-03-28T19:45:48.566Z,5.10
2023-03-28T19:48:18.005Z,6.05
2023-03-28T19:50:45.551Z,4.55
2023-03-28T19:53:12.286Z,6.85
2023-03-28T19:55:55.155Z,5.30
2023-03-28T20:22:47.801Z,5.22
2023-03-28T20:25:17.188Z,6.05
2023-03-28T20:27:46.485Z,5.43
2023-03-28T20:44:21.868Z,5.45
2023-03-28T20:49:29.963Z,5.47
2023-03-28T20:51:57.265Z,4.97
2023-03-28T20:54:25.432Z,5.50
2023-03-28T21:24:13.656Z,4.82
2023-03-28T21:37:29.078Z,4.97
2023-03-28T21:39:55.911Z,5.13
2023-03-28T22:06:56.979Z,5.20
2023-03-28T22:09:23.778Z,5.40
2023-03-28T22:11:52.589Z,5.10
2023-03-28T22:14:19.260Z,5.75
2023-03-28T22:16:46.010Z,5.68
2023-03-28T22:19:18.773Z,5.70
2023-03-28T22:21:52.499Z,5.80
2023-03-28T22:24:19.247Z,5.38
2023-03-28T22:26:48.818Z,5.32
2023-03-28T22:29:16.991Z,5.53
2023-03-28T22:31:46.725Z,5.82
2023-03-28T22:34:19.998Z,6.10
2023-03-28T22:36:49.408Z,5.10
2023-03-28T22:39:24.226Z,5.97
2023-03-28T22:41:51.065Z,6.20
2023-03-28T22:44:21.208Z,7.63
2023-03-28T22:46:53.124Z,6.65
2023-03-28T22:49:22.153Z,6.28
2023-03-28T22:51:50.719Z,6.75
2023-03-28T22:54:23.440Z,6.15
2023-03-28T22:56:50.265Z,7.75
2023-03-28T22:59:16.931Z,7.72
2023-03-28T23:01:46.622Z,7.80
2023-03-28T23:04:13.478Z,8.18
2023-03-28T23:06:56.879Z,8.98
2023-03-28T23:09:25.324Z,10.52
2023-03-28T23:11:54.998Z,9.23
2023-03-28T23:14:25.018Z,9.93
2023-03-28T23:16:52.344Z,8.98
2023-03-28T23:19:21.528Z,10.93
2023-03-28T23:21:48.402Z,9.07
2023-03-28T23:24:17.695Z,11.52
2023-03-28T23:26:47.268Z,9.27
2023-03-28T23:29:18.210Z,9.20
2023-03-28T23:31:47.366Z,10.10
2023-03-28T23:34:14.088Z,8.82
2023-03-28T23:36:47.022Z,9.02
2023-03-28T23:39:14.480Z,10.07
2023-03-28T23:41:46.877Z,9.52
2023-03-28T23:44:13.590Z,8.65
2023-03-28T23:46:44.771Z,9.55
2023-03-28T23:49:11.533Z,10.27
2023-03-28T23:51:38.187Z,8.88
2023-03-28T23:54:04.857Z,9.35
2023-03-28T23:56:37.638Z,8.82
2023-03-28T23:59:04.394Z,8.90
